ROMMA est une association bénévole à but non lucratif. Votre soutien est indispensable : ADHERER à ROMMA ou FAIRE un DON

Nice - (06, Alpes-Maritimes)

Côte-d'Azur (190 m)   Longitude: 07° 14' E   Latitude: 43° 43' N Station partenaire n°136
 

Détail journalier du     <<     >>

Température Precipitation Humidité Pression Vent Dir Rafale Dir. rafale Ensol.
Heure (°C) (mm) (%) (hPa) (km/h) (km/h) (min)
01:00 15.408910092N11N0
02:00 15.208810092NNO8NO0
03:00 15.208610083NNO13NNO0
04:00 15.308610084NNO15NNO0
05:00 15.308610082NNO8NNO0
06:00 15.008710082NNO6NNE0
07:00 14.508610083N8N0
08:00 14.108710092NNE6NNO10
09:00 16.707810093NNE13NNE30
10:00 18.607110104NNE13NNE60
11:00 21.106610104NO13NO60
12:00 21.906010104SO15SO60
13:00 21.9068101011SSE26SSE60
14:00 21.4069101011SE24SE60
15:00 20.707110109SE19SE60
16:00 20.907210097SSE18SSE60
17:00 20.307610107SE16SE60
18:00 18.908110106SSE13SSE10
19:00 17.708410102SSE11SSE0
20:00 16.9087101000---0
21:00 16.8087101100---0
22:00 16.2088101200---0
23:00 16.2089101200---0
minuit 16.308810123N15N0

Graphique du 05-10-2019

 

Serveur OMMA